Time;durP1;ratioP1;P1;durP2;ratioP2;P2;SDS_P1;SDS_P2;PMS_P1;PMS_P2;Temp;Humidity;BMP_temperature;BMP_pressure;BME280_temperature;BME280_humidity;BME280_pressure;Samples;Min_cycle;Max_cycle;Signal;HPM_P1;HPM_P2
2023/04/01 00:00:45;;;;;;;;;;;;;;;8.69;100.00;99067.06;5025115;28;19996;-66
2023/04/01 00:03:11;;;;;;;;;;;;;;;8.70;100.00;99070.53;5022708;28;19921;-66
2023/04/01 00:05:36;;;;;;;;;;;;;;;8.68;100.00;99068.09;5026382;28;19970;-66
2023/04/01 00:08:02;;;;;;;;;;;;;;;8.69;100.00;99075.00;5023825;28;19992;-66
2023/04/01 00:10:27;;;;;;;;;;;;;;;8.69;100.00;99074.19;5029026;28;19928;-66
2023/04/01 00:12:53;;;;;;;;;;;;;;;8.72;100.00;99083.56;5022523;28;19979;-66
2023/04/01 00:15:18;;;;;;;;;;;;;;;8.72;100.00;99091.50;5020316;28;19922;-66
2023/04/01 00:17:43;;;;;;;;;;;;;;;8.72;100.00;99088.84;5028002;28;19917;-66
2023/04/01 00:20:09;;;;;;;;;;;;;;;8.71;100.00;99082.75;5028106;28;19933;-66
2023/04/01 00:22:34;;;;;;;;;;;;;;;8.73;100.00;99088.66;5025167;28;19923;-66
2023/04/01 00:25:00;;;;;;;;;;;;;;;8.75;100.00;99091.09;5021867;28;19964;-66
2023/04/01 00:27:25;;;;;;;;;;;;;;;8.75;100.00;99089.25;5026025;28;19917;-66
2023/04/01 00:29:51;;;;;;;;;;;;;;;8.76;100.00;99096.19;5023180;28;19920;-66
2023/04/01 00:32:16;;;;;;;;;;;;;;;8.79;100.00;99087.03;5020102;28;19921;-67
2023/04/01 00:34:41;;;;;;;;;;;;;;;8.82;100.00;99098.00;5027591;28;19944;-66
2023/04/01 00:37:07;;;;;;;;;;;;;;;8.82;100.00;99095.38;5028784;28;19952;-66
2023/04/01 00:39:34;;;;;;;;;;;;;;;8.85;100.00;99099.44;5023428;28;20386;-66
2023/04/01 00:41:59;;;;;;;;;;;;;;;8.87;100.00;99105.34;5016402;28;19917;-66
2023/04/01 00:44:29;;;;;;;;;;;;;;;8.88;100.00;99102.50;5025329;28;19983;-66
2023/04/01 00:46:54;;;;;;;;;;;;;;;8.87;100.00;99102.69;5018697;28;19921;-66
2023/04/01 00:49:23;;;;;;;;;;;;;;;8.89;100.00;99116.53;5023055;28;19917;-66
2023/04/01 00:51:51;;;;;;;;;;;;;;;8.88;100.00;99106.97;5021492;28;19921;-66
2023/04/01 00:54:18;;;;;;;;;;;;;;;8.89;100.00;99105.97;5025673;28;19951;-66
2023/04/01 00:56:51;;;;;;;;;;;;;;;8.88;100.00;99118.38;5022028;28;19917;-66
2023/04/01 00:59:20;;;;;;;;;;;;;;;8.89;100.00;99113.91;5022366;28;19922;-66
2023/04/01 01:01:46;;;;;;;;;;;;;;;8.90;100.00;99118.19;5024133;28;19932;-66
2023/04/01 01:04:27;;;;;;;;;;;;;;;8.92;100.00;99109.00;5018459;28;20020;-66
2023/04/01 01:07:02;;;;;;;;;;;;;;;8.93;100.00;99120.41;5017769;28;20079;-66
2023/04/01 01:09:38;;;;;;;;;;;;;;;8.92;100.00;99114.31;5023835;28;20475;-66
2023/04/01 01:12:22;;;;;;;;;;;;;;;8.92;100.00;99116.94;5025110;28;19917;-66
2023/04/01 01:15:05;;;;;;;;;;;;;;;8.96;100.00;99128.78;5020751;28;19960;-66
2023/04/01 01:17:49;;;;;;;;;;;;;;;8.93;100.00;99129.16;5021449;28;20008;-66
2023/04/01 01:20:33;;;;;;;;;;;;;;;8.92;100.00;99129.38;5022825;28;19929;-66
2023/04/01 01:23:14;;;;;;;;;;;;;;;8.92;100.00;99130.19;5020235;28;20007;-66
2023/04/01 01:25:57;;;;;;;;;;;;;;;8.91;100.00;99128.56;5023481;28;19983;-66
2023/04/01 01:28:39;;;;;;;;;;;;;;;8.91;100.00;99120.63;5021526;28;19996;-66
2023/04/01 01:31:28;;;;;;;;;;;;;;;8.92;100.00;99132.03;5017574;28;20016;-66
2023/04/01 01:33:56;;;;;;;;;;;;;;;8.92;100.00;99134.66;5009438;28;19917;-66
2023/04/01 01:36:22;;;;;;;;;;;;;;;8.91;100.00;99131.22;5016983;28;19970;-66
2023/04/01 01:38:48;;;;;;;;;;;;;;;8.93;100.00;99142.41;5021124;28;19924;-66
2023/04/01 01:41:15;;;;;;;;;;;;;;;8.92;100.00;99135.47;5020388;28;19921;-66
2023/04/01 01:43:42;;;;;;;;;;;;;;;8.94;100.00;99133.44;5013479;28;19959;-66
2023/04/01 01:46:11;;;;;;;;;;;;;;;8.92;100.00;99140.78;5015736;28;19921;-66
2023/04/01 01:48:37;;;;;;;;;;;;;;;8.91;100.00;99144.44;5020146;28;20337;-66
2023/04/01 01:51:03;;;;;;;;;;;;;;;8.89;100.00;99149.13;5021513;28;19917;-66
2023/04/01 01:53:28;;;;;;;;;;;;;;;8.84;100.00;99153.41;5025250;28;20025;-66
2023/04/01 01:55:54;;;;;;;;;;;;;;;8.86;100.00;99159.31;5028180;28;20001;-66
2023/04/01 01:58:19;;;;;;;;;;;;;;;8.75;100.00;99159.91;5021694;28;20016;-66
2023/04/01 02:00:47;;;;;;;;;;;;;;;8.69;100.00;99154.41;5023741;28;20104;-66
2023/04/01 02:03:13;;;;;;;;;;;;;;;8.66;100.00;99151.31;5021135;28;19921;-66
2023/04/01 02:05:39;;;;;;;;;;;;;;;8.63;100.00;99160.47;5018576;28;19935;-65
2023/04/01 02:08:05;;;;;;;;;;;;;;;8.63;100.00;99163.09;5026542;28;20379;-66
2023/04/01 02:10:33;;;;;;;;;;;;;;;8.61;100.00;99156.38;5020587;28;19944;-66
2023/04/01 02:13:01;;;;;;;;;;;;;;;8.60;100.00;99168.81;5026378;28;19921;-65
2023/04/01 02:15:30;;;;;;;;;;;;;;;8.59;100.00;99172.47;5020170;28;21260;-66
2023/04/01 02:17:56;;;;;;;;;;;;;;;8.58;100.00;99154.13;5020756;28;20387;-66
2023/04/01 02:20:22;;;;;;;;;;;;;;;8.59;100.00;99161.88;5019816;28;19987;-66
2023/04/01 02:22:50;;;;;;;;;;;;;;;8.52;100.00;99170.81;5027302;28;19928;-66
2023/04/01 02:25:18;;;;;;;;;;;;;;;8.51;100.00;99172.66;5018913;28;19940;-66
2023/04/01 02:27:44;;;;;;;;;;;;;;;8.49;100.00;99182.63;5020535;28;20393;-66
2023/04/01 02:30:10;;;;;;;;;;;;;;;8.47;100.00;99168.75;5025369;28;20361;-66
2023/04/01 02:32:37;;;;;;;;;;;;;;;8.45;100.00;99177.91;5015884;28;20416;-66
2023/04/01 02:35:05;;;;;;;;;;;;;;;8.44;100.00;99176.28;5027901;28;19917;-66
2023/04/01 02:37:30;;;;;;;;;;;;;;;8.44;100.00;99182.41;5026266;28;19924;-66
2023/04/01 02:39:59;;;;;;;;;;;;;;;8.45;100.00;99175.28;5030166;28;19921;-66
2023/04/01 02:42:24;;;;;;;;;;;;;;;8.40;100.00;99173.22;5030782;28;20394;-66
2023/04/01 02:44:50;;;;;;;;;;;;;;;8.39;100.00;99179.53;5019566;28;19928;-66
2023/04/01 02:47:15;;;;;;;;;;;;;;;8.36;100.00;99175.41;5031018;28;20366;-66
2023/04/01 02:49:41;;;;;;;;;;;;;;;8.36;100.00;99186.00;5028261;28;19956;-65
2023/04/01 02:52:06;;;;;;;;;;;;;;;8.35;100.00;99189.66;5031383;28;19917;-66
2023/04/01 02:54:31;;;;;;;;;;;;;;;8.32;100.00;99192.66;5027656;28;20031;-66
2023/04/01 02:56:57;;;;;;;;;;;;;;;8.31;100.00;99180.47;5030182;28;20337;-65
2023/04/01 02:59:22;;;;;;;;;;;;;;;8.31;100.00;99184.94;5029212;28;19921;-65
2023/04/01 03:01:47;;;;;;;;;;;;;;;8.32;100.00;99197.97;5027245;28;20127;-65
2023/04/01 03:04:12;;;;;;;;;;;;;;;8.33;100.00;99190.84;5026973;28;19920;-65
2023/04/01 03:06:37;;;;;;;;;;;;;;;8.32;100.00;99189.22;5027821;28;20400;-65
2023/04/01 03:09:03;;;;;;;;;;;;;;;8.33;100.00;99201.41;5020107;28;19925;-65
2023/04/01 03:11:28;;;;;;;;;;;;;;;8.30;100.00;99202.63;5023915;28;19999;-65
2023/04/01 03:13:53;;;;;;;;;;;;;;;8.33;100.00;99193.47;5028180;28;20004;-65
2023/04/01 03:16:18;;;;;;;;;;;;;;;8.29;100.00;99211.56;5023894;28;20159;-65
2023/04/01 03:18:44;;;;;;;;;;;;;;;8.34;100.00;99205.72;5024335;28;19913;-65
2023/04/01 03:21:12;;;;;;;;;;;;;;;8.30;100.00;99207.09;5028732;28;19921;-65
2023/04/01 03:23:37;;;;;;;;;;;;;;;8.29;100.00;99203.63;5029257;28;19924;-65
2023/04/01 03:26:03;;;;;;;;;;;;;;;8.29;100.00;99208.94;5027120;28;19913;-66
2023/04/01 03:28:28;;;;;;;;;;;;;;;8.28;100.00;99215.22;5030856;28;20006;-66
2023/04/01 03:30:53;;;;;;;;;;;;;;;8.32;100.00;99213.00;5025808;28;19913;-65
2023/04/01 03:33:18;;;;;;;;;;;;;;;8.32;100.00;99208.53;5025843;28;19956;-65
2023/04/01 03:35:43;;;;;;;;;;;;;;;8.28;100.00;99209.94;5023451;28;19924;-65
2023/04/01 03:38:08;;;;;;;;;;;;;;;8.30;100.00;99225.63;5013283;28;19920;-65
2023/04/01 03:40:37;;;;;;;;;;;;;;;8.31;100.00;99203.44;5018941;28;19928;-65
2023/04/01 03:43:02;;;;;;;;;;;;;;;8.28;100.00;99231.09;5025113;28;19932;-65
2023/04/01 03:45:27;;;;;;;;;;;;;;;8.37;100.00;99216.72;5023343;28;19971;-65
2023/04/01 03:47:52;;;;;;;;;;;;;;;8.30;100.00;99236.19;5029173;28;20283;-65
2023/04/01 03:50:17;;;;;;;;;;;;;;;8.30;100.00;99223.78;5021828;28;19921;-65
2023/04/01 03:52:43;;;;;;;;;;;;;;;8.31;100.00;99220.13;5027922;28;19925;-65
2023/04/01 03:55:08;;;;;;;;;;;;;;;8.28;100.00;99223.16;5029211;28;19961;-65
2023/04/01 03:57:33;;;;;;;;;;;;;;;8.24;100.00;99232.50;5027361;28;19917;-65
2023/04/01 03:59:58;;;;;;;;;;;;;;;8.23;100.00;99215.00;5029335;28;19921;-65
2023/04/01 04:02:23;;;;;;;;;;;;;;;8.24;100.00;99232.50;5024935;28;19921;-65
2023/04/01 04:04:49;;;;;;;;;;;;;;;8.18;100.00;99243.88;5027957;28;20395;-65
2023/04/01 04:07:14;;;;;;;;;;;;;;;8.13;100.00;99229.59;5024165;28;19921;-65
2023/04/01 04:09:39;;;;;;;;;;;;;;;8.20;100.00;99239.19;5028079;28;19917;-65
2023/04/01 04:12:05;;;;;;;;;;;;;;;8.12;100.00;99242.00;5016546;28;19932;-66
2023/04/01 04:14:30;;;;;;;;;;;;;;;8.12;100.00;99249.13;5027762;28;19914;-65
2023/04/01 04:16:56;;;;;;;;;;;;;;;8.08;100.00;99246.03;5020842;28;19978;-65
2023/04/01 04:19:21;;;;;;;;;;;;;;;8.12;100.00;99244.66;5028567;28;20029;-65
2023/04/01 04:21:46;;;;;;;;;;;;;;;8.10;100.00;99254.59;5030241;28;20337;-66
2023/04/01 04:24:11;;;;;;;;;;;;;;;8.10;100.00;99244.03;5025739;28;19936;-65
2023/04/01 04:26:36;;;;;;;;;;;;;;;8.06;100.00;99262.06;5027849;28;20015;-65
2023/04/01 04:29:02;;;;;;;;;;;;;;;8.04;100.00;99256.16;5022085;28;20583;-65
2023/04/01 04:31:27;;;;;;;;;;;;;;;8.03;100.00;99265.09;5019139;28;19921;-66
2023/04/01 04:33:53;;;;;;;;;;;;;;;8.06;100.00;99256.78;5023883;28;19917;-65
2023/04/01 04:36:19;;;;;;;;;;;;;;;8.05;100.00;99268.38;5026581;28;19921;-66
2023/04/01 04:38:44;;;;;;;;;;;;;;;8.07;100.00;99279.56;5026288;28;19936;-65
2023/04/01 04:41:11;;;;;;;;;;;;;;;8.04;100.00;99263.28;5023087;28;20325;-65
2023/04/01 04:43:36;;;;;;;;;;;;;;;8.06;100.00;99263.91;5024489;28;19924;-65
2023/04/01 04:46:04;;;;;;;;;;;;;;;8.03;100.00;99280.16;5028114;28;19921;-65
2023/04/01 04:48:30;;;;;;;;;;;;;;;8.02;100.00;99276.69;5019389;28;19917;-65
2023/04/01 04:50:55;;;;;;;;;;;;;;;8.00;100.00;99268.13;5021874;28;19978;-65
2023/04/01 04:53:20;;;;;;;;;;;;;;;7.99;100.00;99278.91;5020414;28;20526;-65
2023/04/01 04:55:49;;;;;;;;;;;;;;;8.01;100.00;99285.63;5022433;28;19956;-65
2023/04/01 04:58:14;;;;;;;;;;;;;;;8.05;100.00;99292.16;5025282;28;19917;-65
2023/04/01 05:00:40;;;;;;;;;;;;;;;8.07;100.00;99294.63;5027835;28;19928;-65
2023/04/01 05:03:05;;;;;;;;;;;;;;;8.09;100.00;99303.16;5024646;28;19929;-65
2023/04/01 05:05:30;;;;;;;;;;;;;;;8.09;100.00;99303.16;5023716;28;19913;-65
2023/04/01 05:07:55;;;;;;;;;;;;;;;8.10;100.00;99302.19;5020997;28;19933;-65
2023/04/01 05:10:21;;;;;;;;;;;;;;;8.09;100.00;99303.16;5023418;28;19963;-65
2023/04/01 05:12:46;;;;;;;;;;;;;;;8.06;100.00;99303.56;5024220;28;19929;-65
2023/04/01 05:15:11;;;;;;;;;;;;;;;8.10;100.00;99304.84;5019360;28;19917;-65
2023/04/01 05:17:36;;;;;;;;;;;;;;;8.11;100.00;99310.94;5022220;28;19925;-65
2023/04/01 05:20:01;;;;;;;;;;;;;;;8.11;100.00;99317.03;5016109;28;19922;-65
2023/04/01 05:22:27;;;;;;;;;;;;;;;8.12;100.00;99320.50;5019956;28;20550;-65
2023/04/01 05:24:52;;;;;;;;;;;;;;;8.12;100.00;99329.25;5026232;28;19959;-66
2023/04/01 05:27:17;;;;;;;;;;;;;;;8.17;100.00;99331.31;5025177;28;20295;-65
2023/04/01 05:29:42;;;;;;;;;;;;;;;8.15;100.00;99330.69;5018607;28;19948;-66
2023/04/01 05:32:07;;;;;;;;;;;;;;;8.19;100.00;99332.75;5027122;28;19975;-65
2023/04/01 05:34:33;;;;;;;;;;;;;;;8.19;100.00;99345.97;5022891;28;20457;-65
2023/04/01 05:36:58;;;;;;;;;;;;;;;8.21;100.00;99345.78;5026185;28;19913;-65
2023/04/01 05:39:23;;;;;;;;;;;;;;;8.24;100.00;99340.94;5020700;28;20462;-65
2023/04/01 05:41:48;;;;;;;;;;;;;;;8.25;100.00;99337.28;5014761;28;20051;-65
2023/04/01 05:44:14;;;;;;;;;;;;;;;8.28;100.00;99354.59;5017947;28;20008;-65
2023/04/01 05:46:39;;;;;;;;;;;;;;;8.25;100.00;99350.50;5008758;28;19921;-65
2023/04/01 05:49:04;;;;;;;;;;;;;;;8.23;100.00;99355.16;5017407;28;19920;-65
2023/04/01 05:51:29;;;;;;;;;;;;;;;8.31;100.00;99362.13;5022745;28;19929;-65
2023/04/01 05:53:55;;;;;;;;;;;;;;;8.31;100.00;99359.47;5014664;28;19917;-65
2023/04/01 05:56:20;;;;;;;;;;;;;;;8.32;100.00;99361.94;5025364;28;19935;-65
2023/04/01 05:58:50;;;;;;;;;;;;;;;8.33;100.00;99366.25;5025874;28;19921;-65
2023/04/01 06:01:15;;;;;;;;;;;;;;;8.38;100.00;99370.94;5019026;28;19927;-65
2023/04/01 06:03:40;;;;;;;;;;;;;;;8.38;100.00;99382.38;5021182;28;20290;-65
2023/04/01 06:06:11;;;;;;;;;;;;;;;8.42;100.00;99382.00;5024737;28;20395;-65
2023/04/01 06:08:36;;;;;;;;;;;;;;;8.46;100.00;99386.72;5017883;28;19924;-65
2023/04/01 06:11:13;;;;;;;;;;;;;;;8.46;100.00;99397.28;5023596;28;19917;-65
2023/04/01 06:13:59;;;;;;;;;;;;;;;8.47;100.00;99395.47;5030226;28;19921;-65
2023/04/01 06:16:33;;;;;;;;;;;;;;;8.51;100.00;99402.00;5018935;28;20390;-64
2023/04/01 06:19:18;;;;;;;;;;;;;;;8.49;100.00;99407.47;5023362;28;19917;-65
2023/04/01 06:22:08;;;;;;;;;;;;;;;8.53;100.00;99411.38;5021676;28;19921;-64
2023/04/01 06:24:52;;;;;;;;;;;;;;;8.53;100.00;99421.16;5011732;28;19913;-64
2023/04/01 06:27:27;;;;;;;;;;;;;;;8.53;100.00;99421.16;5012758;28;20020;-65
2023/04/01 06:30:11;;;;;;;;;;;;;;;8.54;100.00;99428.06;5012172;28;19984;-65
2023/04/01 06:32:43;;;;;;;;;;;;;;;8.59;100.00;99433.59;5024664;28;21573;-65
2023/04/01 06:35:16;;;;;;;;;;;;;;;8.62;100.00;99433.22;5026810;28;19932;-65
2023/04/01 06:37:50;;;;;;;;;;;;;;;8.63;100.00;99437.50;5025387;28;19939;-65
2023/04/01 06:40:31;;;;;;;;;;;;;;;8.60;100.00;99443.16;5019717;28;19936;-65
2023/04/01 06:43:02;;;;;;;;;;;;;;;8.60;100.00;99437.88;5020554;28;19971;-65
2023/04/01 06:45:33;;;;;;;;;;;;;;;8.64;100.00;99434.66;5013728;28;19913;-65
2023/04/01 06:47:58;;;;;;;;;;;;;;;8.64;100.00;99441.78;5022099;28;19986;-64
2023/04/01 06:50:26;;;;;;;;;;;;;;;8.67;100.00;99446.69;5024792;28;19923;-65
2023/04/01 06:52:51;;;;;;;;;;;;;;;8.63;100.00;99446.25;5020969;28;19979;-65
2023/04/01 06:55:16;;;;;;;;;;;;;;;8.62;100.00;99451.72;5026163;28;19976;-65
2023/04/01 06:57:44;;;;;;;;;;;;;;;8.62;100.00;99455.19;5020597;28;19917;-65
2023/04/01 07:00:14;;;;;;;;;;;;;;;8.66;100.00;99458.28;5020164;28;19933;-65
2023/04/01 07:02:43;;;;;;;;;;;;;;;8.67;100.00;99465.19;5022440;28;20464;-64
2023/04/01 07:05:11;;;;;;;;;;;;;;;8.63;100.00;99464.78;5025525;28;19925;-65
2023/04/01 07:07:52;;;;;;;;;;;;;;;8.62;100.00;99471.06;5020363;28;19917;-65
2023/04/01 07:10:24;;;;;;;;;;;;;;;8.68;100.00;99488.84;5024676;28;19917;-65
2023/04/01 07:12:51;;;;;;;;;;;;;;;8.61;100.00;99479.22;5026444;28;20440;-64
2023/04/01 07:15:16;;;;;;;;;;;;;;;8.65;100.00;99483.91;5017525;28;19980;-64
2023/04/01 07:17:42;;;;;;;;;;;;;;;8.72;100.00;99491.94;5022411;28;19917;-64
2023/04/01 07:20:11;;;;;;;;;;;;;;;8.69;100.00;99494.97;5026445;28;19921;-64
2023/04/01 07:22:43;;;;;;;;;;;;;;;8.69;100.00;99494.97;5025197;28;19979;-64
2023/04/01 07:25:13;;;;;;;;;;;;;;;8.71;100.00;99500.88;5030930;28;19913;-66
2023/04/01 07:27:38;;;;;;;;;;;;;;;8.70;100.00;99501.91;5027069;28;19926;-66
2023/04/01 07:30:12;;;;;;;;;;;;;;;8.76;100.00;99505.59;5030172;28;20016;-66
2023/04/01 07:32:40;;;;;;;;;;;;;;;8.77;100.00;99502.75;5029465;28;19920;-66
2023/04/01 07:35:05;;;;;;;;;;;;;;;8.77;100.00;99513.34;5025493;28;19924;-66
2023/04/01 07:37:38;;;;;;;;;;;;;;;8.80;100.00;99522.72;5023334;28;19921;-66
2023/04/01 07:40:03;;;;;;;;;;;;;;;8.82;100.00;99526.00;5027218;28;19929;-66
2023/04/01 07:42:31;;;;;;;;;;;;;;;8.81;100.00;99525.19;5025465;28;19967;-66
2023/04/01 07:45:09;;;;;;;;;;;;;;;8.85;100.00;99531.72;5026078;28;19924;-66
2023/04/01 07:47:49;;;;;;;;;;;;;;;8.85;100.00;99526.44;5027053;28;19936;-66
2023/04/01 07:50:15;;;;;;;;;;;;;;;8.87;100.00;99532.34;5022154;28;20001;-66
2023/04/01 07:52:49;;;;;;;;;;;;;;;8.93;100.00;99528.94;5026909;28;20015;-67
2023/04/01 07:55:20;;;;;;;;;;;;;;;8.97;100.00;99538.16;5023610;28;19984;-66
2023/04/01 07:58:04;;;;;;;;;;;;;;;9.02;100.00;99539.41;5019787;28;20393;-66
2023/04/01 08:00:48;;;;;;;;;;;;;;;9.06;100.00;99554.72;5027421;28;20020;-66
2023/04/01 08:03:16;;;;;;;;;;;;;;;9.09;100.00;99548.22;5026338;28;19958;-66
2023/04/01 08:05:46;;;;;;;;;;;;;;;9.08;100.00;99551.88;5026317;28;20405;-66
2023/04/01 08:08:21;;;;;;;;;;;;;;;9.11;100.00;99565.56;5021866;28;20394;-66
2023/04/01 08:10:52;;;;;;;;;;;;;;;9.11;100.00;99565.56;5019929;28;21436;-66
2023/04/01 08:13:36;;;;;;;;;;;;;;;9.16;100.00;99570.25;5026336;28;20000;-66
2023/04/01 08:16:12;;;;;;;;;;;;;;;9.15;100.00;99573.94;5017301;28;19923;-64
2023/04/01 08:18:46;;;;;;;;;;;;;;;9.11;100.00;99573.50;5022961;28;20647;-66
2023/04/01 08:21:17;;;;;;;;;;;;;;;9.11;100.00;99583.28;5023489;28;19921;-66
2023/04/01 08:23:47;;;;;;;;;;;;;;;9.17;100.00;99587.78;5024958;28;19917;-66
2023/04/01 08:26:31;;;;;;;;;;;;;;;9.13;100.00;99582.06;5020625;28;20502;-66
2023/04/01 08:29:11;;;;;;;;;;;;;;;9.16;100.00;99591.44;5022725;28;19917;-66
2023/04/01 08:31:40;;;;;;;;;;;;;;;9.19;100.00;99596.38;5021092;28;19913;-66
2023/04/01 08:34:11;;;;;;;;;;;;;;;9.18;100.00;99600.03;5028655;28;20383;-66
2023/04/01 08:36:42;;;;;;;;;;;;;;;9.24;100.00;99607.19;5027085;28;19967;-65
2023/04/01 08:39:13;;;;;;;;;;;;;;;9.26;100.00;99611.31;5025714;28;20302;-65
2023/04/01 08:41:57;;;;;;;;;;;;;;;9.28;100.00;99606.66;5014623;28;19928;-66
2023/04/01 08:44:42;;;;;;;;;;;;;;;9.27;100.00;99609.50;5025693;28;19953;-66
2023/04/01 08:47:24;;;;;;;;;;;;;;;9.30;100.00;99617.06;5022899;28;20385;-66
2023/04/01 08:50:15;;;;;;;;;;;;;;;9.38;100.00;99621.38;5022989;28;19996;-66
2023/04/01 08:52:46;;;;;;;;;;;;;;;9.34;100.00;99622.78;5001807;28;20554;-66
2023/04/01 08:55:30;;;;;;;;;;;;;;;9.31;100.00;99634.59;5025348;28;19924;-66
2023/04/01 08:57:58;;;;;;;;;;;;;;;9.32;100.00;99625.63;5021856;28;19929;-66
2023/04/01 09:00:23;;;;;;;;;;;;;;;9.34;100.00;99642.16;5023154;28;20038;-65
2023/04/01 09:03:07;;;;;;;;;;;;;;;9.32;100.00;99641.53;5027068;28;19956;-66
2023/04/01 09:05:36;;;;;;;;;;;;;;;9.34;100.00;99639.50;5025654;28;19921;-66
2023/04/01 09:08:08;;;;;;;;;;;;;;;9.36;100.00;99650.72;5026564;28;20454;-66
2023/04/01 09:10:41;;;;;;;;;;;;;;;9.37;100.00;99656.84;5024952;28;19928;-66
2023/04/01 09:13:26;;;;;;;;;;;;;;;9.38;100.00;99659.28;5021653;28;19925;-66
2023/04/01 09:16:04;;;;;;;;;;;;;;;9.40;100.00;99662.56;5021814;28;20494;-65
2023/04/01 09:18:39;;;;;;;;;;;;;;;9.40;100.00;99654.63;5018196;28;19921;-65
2023/04/01 09:21:23;;;;;;;;;;;;;;;9.41;100.00;99660.72;5021766;28;19921;-65
2023/04/01 09:23:54;;;;;;;;;;;;;;;9.45;100.00;99676.06;5018028;28;19917;-66
2023/04/01 09:26:20;;;;;;;;;;;;;;;9.41;100.00;99680.09;5026088;28;19921;-66
2023/04/01 09:29:05;;;;;;;;;;;;;;;9.45;100.00;99681.34;5019776;28;20339;-66
2023/04/01 09:31:52;;;;;;;;;;;;;;;9.42;100.00;99681.75;5012392;28;19956;-66
2023/04/01 09:34:40;;;;;;;;;;;;;;;9.43;100.00;99688.69;5024197;28;19996;-66
2023/04/01 09:37:17;;;;;;;;;;;;;;;9.42;100.00;99691.53;4994695;28;19913;-66
2023/04/01 09:39:59;;;;;;;;;;;;;;;9.42;100.00;99688.88;5024206;28;19963;-66
2023/04/01 09:42:44;;;;;;;;;;;;;;;9.45;100.00;99697.25;5022094;28;19917;-65
2023/04/01 09:45:18;;;;;;;;;;;;;;;9.43;100.00;99693.97;5024753;28;19913;-65
2023/04/01 09:48:05;;;;;;;;;;;;;;;9.38;100.00;99701.69;5023155;28;19932;-66
2023/04/01 09:50:36;;;;;;;;;;;;;;;9.38;100.00;99692.91;5025038;28;19943;-66
2023/04/01 09:53:06;;;;;;;;;;;;;;;9.38;100.00;99692.91;5019914;28;19973;-66
2023/04/01 09:55:46;;;;;;;;;;;;;;;9.39;100.00;99700.69;5023078;28;19924;-66
2023/04/01 09:58:30;;;;;;;;;;;;;;;9.44;100.00;99705.41;5021074;28;19914;-66
2023/04/01 10:01:10;;;;;;;;;;;;;;;9.44;100.00;99706.22;5024107;28;19925;-66
2023/04/01 10:03:44;;;;;;;;;;;;;;;9.48;100.00;99707.47;5025143;28;19975;-66
2023/04/01 10:06:12;;;;;;;;;;;;;;;9.51;100.00;99701.78;5025039;28;20357;-66
2023/04/01 10:08:52;;;;;;;;;;;;;;;9.54;100.00;99709.38;5025820;28;19971;-66
2023/04/01 10:11:43;;;;;;;;;;;;;;;9.57;100.00;99710.81;5026217;28;19956;-66
2023/04/01 10:14:23;;;;;;;;;;;;;;;9.63;100.00;99716.16;5020407;28;19913;-66
2023/04/01 10:17:05;;;;;;;;;;;;;;;9.65;100.00;99725.75;5018127;28;19913;-66
2023/04/01 10:19:30;;;;;;;;;;;;;;;9.73;100.00;99731.72;5018046;28;19917;-66
2023/04/01 10:22:01;;;;;;;;;;;;;;;9.81;100.00;99722.81;5021989;28;19921;-66
2023/04/01 10:24:42;;;;;;;;;;;;;;;9.93;100.00;99731.91;5023138;28;19992;-66
2023/04/01 10:27:16;;;;;;;;;;;;;;;9.92;100.00;99730.25;5027449;28;19917;-66
2023/04/01 10:29:52;;;;;;;;;;;;;;;9.99;100.00;99733.75;5025768;28;19975;-66
2023/04/01 10:32:36;;;;;;;;;;;;;;;9.99;100.00;99731.09;5024869;28;19944;-66
2023/04/01 10:35:20;;;;;;;;;;;;;;;9.94;100.00;99737.00;5023861;28;19974;-66
2023/04/01 10:38:17;;;;;;;;;;;;;;;9.92;100.00;99740.88;5014933;28;20036;-66
2023/04/01 10:40:48;;;;;;;;;;;;;;;9.92;100.00;99744.34;4989342;28;20298;-67
2023/04/01 10:43:27;;;;;;;;;;;;;;;9.87;100.00;99733.50;5021964;28;20335;-67
2023/04/01 10:46:11;;;;;;;;;;;;;;;9.90;100.00;99742.88;5024111;28;19917;-67
2023/04/01 10:48:36;;;;;;;;;;;;;;;9.87;100.00;99740.63;5018818;28;19971;-67
2023/04/01 10:51:10;;;;;;;;;;;;;;;9.89;100.00;99743.91;5026097;28;19944;-66
2023/04/01 10:53:54;;;;;;;;;;;;;;;9.89;100.00;99741.25;5007724;28;20264;-67
2023/04/01 10:56:49;;;;;;;;;;;;;;;9.91;100.00;99745.34;5030780;28;20004;-67
2023/04/01 10:59:16;;;;;;;;;;;;;;;9.95;100.00;99753.72;4951083;28;19918;-67
2023/04/01 11:01:47;;;;;;;;;;;;;;;9.94;100.00;99754.75;5026827;28;19921;-67
2023/04/01 11:04:25;;;;;;;;;;;;;;;9.93;100.00;99761.88;5029845;28;19917;-67
2023/04/01 11:07:09;;;;;;;;;;;;;;;9.97;100.00;99756.19;5016470;28;20448;-66
2023/04/01 11:09:37;;;;;;;;;;;;;;;10.00;100.00;99769.88;5012352;28;19921;-66
2023/04/01 11:12:21;;;;;;;;;;;;;;;9.99;100.00;99759.47;5027010;28;19917;-67
2023/04/01 11:15:02;;;;;;;;;;;;;;;9.98;100.00;99766.59;5019854;28;19917;-67
2023/04/01 11:17:57;;;;;;;;;;;;;;;9.96;100.00;99767.81;5018961;28;20399;-67
2023/04/01 11:20:37;;;;;;;;;;;;;;;10.02;100.00;99778.47;5024286;28;19967;-67
2023/04/01 11:23:04;;;;;;;;;;;;;;;9.99;100.00;99778.03;5023619;28;19967;-67
2023/04/01 11:25:49;;;;;;;;;;;;;;;10.03;100.00;99788.06;5012945;28;19932;-67
2023/04/01 11:28:20;;;;;;;;;;;;;;;10.02;100.00;99783.78;5020927;28;20406;-67
2023/04/01 11:30:45;;;;;;;;;;;;;;;10.09;100.00;99784.63;5023723;28;19963;-67
2023/04/01 11:33:28;;;;;;;;;;;;;;;10.12;100.00;99781.63;5025270;28;19921;-67
2023/04/01 11:35:56;;;;;;;;;;;;;;;10.17;100.00;99789.81;5012202;28;19917;-67
2023/04/01 11:38:25;;;;;;;;;;;;;;;10.21;100.00;99793.75;5020879;28;19932;-67
2023/04/01 11:41:07;;;;;;;;;;;;;;;10.27;100.00;99800.09;5022002;28;19929;-67
2023/04/01 11:43:32;;;;;;;;;;;;;;;10.32;100.00;99800.34;5018388;28;19936;-66
2023/04/01 11:46:10;;;;;;;;;;;;;;;10.31;100.00;99814.63;5029036;28;19917;-66
2023/04/01 11:48:54;;;;;;;;;;;;;;;10.29;100.00;99807.88;5021922;28;20299;-67
2023/04/01 11:51:43;;;;;;;;;;;;;;;10.23;100.00;99807.63;5021354;28;19936;-67
2023/04/01 11:54:20;;;;;;;;;;;;;;;10.22;100.00;99813.97;5017389;28;19913;-66
2023/04/01 11:57:04;;;;;;;;;;;;;;;10.22;100.00;99819.25;5025850;28;19936;-66
2023/04/01 11:59:29;;;;;;;;;;;;;;;10.26;100.00;99821.53;5018619;28;20783;-67
2023/04/01 12:01:57;;;;;;;;;;;;;;;10.28;100.00;99824.81;5020030;28;19921;-67
2023/04/01 12:04:41;;;;;;;;;;;;;;;10.27;100.00;99831.13;5016049;28;19960;-66
2023/04/01 12:07:09;;;;;;;;;;;;;;;10.27;100.00;99829.28;5016395;28;19963;-66
2023/04/01 12:09:42;;;;;;;;;;;;;;;10.30;100.00;99844.81;5024926;28;20008;-67
2023/04/01 12:12:13;;;;;;;;;;;;;;;10.23;100.00;99844.78;5017160;28;20378;-67
2023/04/01 12:14:43;;;;;;;;;;;;;;;10.22;100.00;99843.16;5022486;28;19917;-67
2023/04/01 12:17:17;;;;;;;;;;;;;;;10.22;100.00;99845.78;5025100;28;19928;-67
2023/04/01 12:19:52;;;;;;;;;;;;;;;10.23;100.00;99850.09;5019065;28;19921;-66
2023/04/01 12:22:29;;;;;;;;;;;;;;;10.24;100.00;99850.91;5025022;28;19917;-66
2023/04/01 12:24:58;;;;;;;;;;;;;;;10.26;100.00;99848.88;5018934;28;20464;-67
2023/04/01 12:27:31;;;;;;;;;;;;;;;10.29;100.00;99850.31;5008654;28;19924;-67
2023/04/01 12:30:25;;;;;;;;;;;;;;;10.32;100.00;99855.25;5019917;28;19927;-66
2023/04/01 12:32:53;;;;;;;;;;;;;;;10.28;100.00;99857.47;5004030;28;19928;-66
2023/04/01 12:35:34;;;;;;;;;;;;;;;10.25;100.00;99860.50;5021996;28;19963;-66
2023/04/01 12:38:18;;;;;;;;;;;;;;;10.24;100.00;99859.69;5002883;28;19923;-66
2023/04/01 12:41:01;;;;;;;;;;;;;;;10.29;100.00;99868.91;5021948;28;20007;-66
2023/04/01 12:43:45;;;;;;;;;;;;;;;10.24;100.00;99869.47;5026547;28;19952;-67
2023/04/01 12:46:10;;;;;;;;;;;;;;;10.18;100.00;99867.56;5025691;28;20358;-66
2023/04/01 12:48:35;;;;;;;;;;;;;;;10.14;100.00;99877.75;5024599;28;19921;-67
2023/04/01 12:51:00;;;;;;;;;;;;;;;10.13;100.00;99870.81;5022505;28;19921;-67
2023/04/01 12:53:28;;;;;;;;;;;;;;;10.14;100.00;99888.38;5022838;28;20069;-67
2023/04/01 12:55:54;;;;;;;;;;;;;;;10.18;100.00;99888.78;5029201;28;19999;-67
2023/04/01 12:58:31;;;;;;;;;;;;;;;10.05;100.00;99878.88;5013964;28;20011;-67
2023/04/01 13:01:15;;;;;;;;;;;;;;;10.05;100.00;99893.97;5016249;28;19925;-67
2023/04/01 13:03:46;;;;;;;;;;;;;;;10.00;100.00;99894.53;5022478;28;19921;-67
2023/04/01 13:06:11;;;;;;;;;;;;;;;9.96;100.00;99892.47;5024182;28;19928;-67